Terminal Aerodrome Forecast
Issued by NWS

Home | Current Version | Previous Version | Text Only | Print | Product List | Glossary On
Versions: 1 2 3 4 5 6 7 8 9 10 11 12 13 14 15 16 17 18 19
000
FTUS45 KGJT 270801 AAA
TAFRIL
TAF AMD
KRIL 270801Z 2708/2806 27004KT P6SM BKN070 OVC090
     FM272000 24017G27KT P6SM -SHRA BKN035
     FM280200 27009KT 3SM -SHSNRA OVC035
     FM280400 28009KT 4SM -SHSN OVC025=

USA.gov is the U.S. government's official web portal to all federal, state and local government web resources and services.